createdAt,value
2018-02-19T00:01:24.848Z,22.43
2018-02-19T00:03:51.011Z,21.87
2018-02-19T00:06:17.893Z,21.43
2018-02-19T00:08:44.087Z,25.10
2018-02-19T00:11:11.036Z,21.60
2018-02-19T00:13:37.940Z,23.47
2018-02-19T00:16:04.136Z,25.40
2018-02-19T00:18:30.300Z,20.90
2018-02-19T00:20:56.462Z,21.00
2018-02-19T00:23:23.365Z,23.90
2018-02-19T00:25:49.532Z,25.57
2018-02-19T00:28:16.418Z,22.97
2018-02-19T00:30:42.577Z,26.07
2018-02-19T00:33:08.737Z,26.33
2018-02-19T00:35:35.634Z,27.73
2018-02-19T00:38:01.785Z,24.23
2018-02-19T00:40:27.946Z,28.07
2018-02-19T00:42:54.191Z,26.63
2018-02-19T00:45:20.394Z,22.70
2018-02-19T00:47:47.328Z,23.23
2018-02-19T00:50:14.236Z,22.27
2018-02-19T00:52:40.395Z,24.47
2018-02-19T00:55:07.342Z,24.10
2018-02-19T00:57:34.489Z,27.63
2018-02-19T01:00:02.190Z,21.70
2018-02-19T01:02:28.411Z,28.13
2018-02-19T01:04:54.608Z,22.43
2018-02-19T01:07:21.509Z,23.77
2018-02-19T01:09:47.717Z,18.90
2018-02-19T01:12:13.878Z,26.70
2018-02-19T01:14:40.031Z,20.93
2018-02-19T01:17:06.974Z,25.90
2018-02-19T01:19:33.181Z,21.60
2018-02-19T01:21:59.376Z,21.50
2018-02-19T01:24:25.528Z,21.20
2018-02-19T01:26:51.678Z,22.30
2018-02-19T01:29:17.805Z,25.13
2018-02-19T01:31:44.002Z,23.90
2018-02-19T01:34:10.174Z,24.40
2018-02-19T01:36:37.134Z,18.97
2018-02-19T01:39:03.397Z,18.93
2018-02-19T01:41:29.563Z,19.13
2018-02-19T01:43:56.464Z,20.67
2018-02-19T01:46:22.599Z,22.27
2018-02-19T01:48:48.796Z,17.63
2018-02-19T01:51:14.997Z,18.37
2018-02-19T01:53:41.879Z,23.30
2018-02-19T01:56:08.012Z,20.30
2018-02-19T01:58:34.136Z,20.53
2018-02-19T02:01:00.375Z,24.63
2018-02-19T02:03:26.531Z,18.50
2018-02-19T02:05:53.416Z,24.23
2018-02-19T02:08:19.636Z,20.90
2018-02-19T02:10:45.828Z,19.53
2018-02-19T02:13:12.699Z,24.17
2018-02-19T02:15:39.601Z,21.63
2018-02-19T02:18:05.832Z,22.33
2018-02-19T02:20:32.062Z,16.37
2018-02-19T02:22:58.210Z,21.80
2018-02-19T02:25:25.128Z,15.57
2018-02-19T02:27:51.343Z,18.20
2018-02-19T02:30:17.551Z,18.07
2018-02-19T02:32:43.693Z,20.83
2018-02-19T02:35:09.876Z,20.63
2018-02-19T02:37:36.863Z,15.23
2018-02-19T02:40:03.102Z,18.10
2018-02-19T02:42:29.296Z,20.37
2018-02-19T02:44:55.462Z,17.23
2018-02-19T02:47:21.625Z,18.50
2018-02-19T02:49:48.541Z,16.53
2018-02-19T02:52:14.666Z,19.90
2018-02-19T02:54:40.834Z,18.40
2018-02-19T02:57:07.774Z,15.60
2018-02-19T02:59:34.694Z,18.77
2018-02-19T03:02:01.593Z,17.83
2018-02-19T03:04:27.736Z,23.10
2018-02-19T03:06:53.930Z,20.90
2018-02-19T03:09:20.112Z,14.47
2018-02-19T03:11:46.308Z,16.60
2018-02-19T03:14:12.526Z,18.63
2018-02-19T03:16:38.725Z,13.43
2018-02-19T03:19:05.620Z,16.20
2018-02-19T03:21:31.837Z,20.10
2018-02-19T03:23:58.019Z,15.17
2018-02-19T03:26:24.984Z,17.50
2018-02-19T03:28:51.113Z,18.90
2018-02-19T03:31:17.302Z,15.47
2018-02-19T03:33:43.464Z,17.60
2018-02-19T03:36:10.353Z,18.50
2018-02-19T03:38:36.503Z,17.80
2018-02-19T03:41:02.710Z,17.13
2018-02-19T03:43:28.872Z,14.50
2018-02-19T03:45:55.800Z,15.73
2018-02-19T03:48:22.695Z,17.67
2018-02-19T03:50:48.810Z,15.43
2018-02-19T03:53:15.018Z,10.93
2018-02-19T03:55:41.878Z,16.70
2018-02-19T03:58:08.789Z,17.20
2018-02-19T04:00:35.733Z,15.50
2018-02-19T04:03:02.631Z,14.33
2018-02-19T04:05:28.780Z,16.13
2018-02-19T04:07:54.936Z,15.70
2018-02-19T04:10:21.840Z,15.47
2018-02-19T04:12:48.047Z,14.10
2018-02-19T04:15:14.158Z,14.37
2018-02-19T04:17:41.104Z,18.73
2018-02-19T04:20:07.296Z,16.33
2018-02-19T04:22:33.483Z,15.80
2018-02-19T04:24:59.644Z,15.20
2018-02-19T04:27:25.876Z,18.30
2018-02-19T04:29:52.086Z,14.40
2018-02-19T04:32:18.231Z,15.27
2018-02-19T04:34:44.369Z,18.27
2018-02-19T04:37:10.539Z,17.57
2018-02-19T04:39:36.757Z,22.10
2018-02-19T04:42:02.945Z,17.87
2018-02-19T04:44:34.807Z,16.97
2018-02-19T04:47:00.998Z,16.37
2018-02-19T04:49:27.189Z,15.73
2018-02-19T04:51:53.349Z,19.40
2018-02-19T04:54:19.497Z,19.13
2018-02-19T04:56:45.681Z,16.33
2018-02-19T04:59:11.850Z,14.20
2018-02-19T05:01:38.083Z,16.80
2018-02-19T05:04:04.206Z,21.13
2018-02-19T05:06:30.350Z,20.47
2018-02-19T05:08:57.284Z,13.20
2018-02-19T05:11:23.446Z,14.60
2018-02-19T05:13:50.341Z,17.53
2018-02-19T05:16:16.537Z,15.07
2018-02-19T05:18:42.744Z,18.67
2018-02-19T05:21:08.916Z,22.50
2018-02-19T05:23:35.128Z,16.97
2018-02-19T05:26:01.368Z,21.57
2018-02-19T05:28:27.555Z,21.77
2018-02-19T05:30:53.752Z,19.03
2018-02-19T05:33:19.933Z,18.43
2018-02-19T05:35:46.115Z,19.63
2018-02-19T05:38:13.051Z,16.83
2018-02-19T05:40:39.204Z,22.20
2018-02-19T05:43:06.163Z,14.70
2018-02-19T05:45:32.408Z,19.20
2018-02-19T05:47:58.585Z,19.03
2018-02-19T05:50:25.511Z,17.47
2018-02-19T05:52:51.713Z,15.93
2018-02-19T05:55:17.896Z,17.27
2018-02-19T05:57:44.830Z,16.60
2018-02-19T06:00:11.035Z,16.47
2018-02-19T06:02:37.242Z,16.33
2018-02-19T06:05:03.466Z,24.03
2018-02-19T06:07:29.651Z,18.60
2018-02-19T06:09:56.552Z,21.93
2018-02-19T06:12:22.724Z,18.10
2018-02-19T06:14:49.658Z,13.90
2018-02-19T06:17:16.591Z,15.10
2018-02-19T06:19:42.757Z,14.77
2018-02-19T06:22:09.706Z,13.77
2018-02-19T06:24:35.913Z,14.13
2018-02-19T06:27:02.818Z,15.07
2018-02-19T06:29:28.950Z,19.50
2018-02-19T06:31:55.167Z,16.40
2018-02-19T06:34:21.342Z,17.50
2018-02-19T06:36:48.228Z,16.30
2018-02-19T06:39:14.483Z,14.53
2018-02-19T06:41:40.680Z,13.97
2018-02-19T06:44:06.859Z,14.33
2018-02-19T06:46:33.751Z,15.73
2018-02-19T06:48:59.958Z,16.20
2018-02-19T06:51:26.113Z,14.90
2018-02-19T06:53:52.231Z,22.43
2018-02-19T06:56:18.454Z,14.63
2018-02-19T06:58:44.687Z,19.10
2018-02-19T07:01:10.907Z,20.83
2018-02-19T07:03:37.111Z,16.80
2018-02-19T07:06:04.111Z,14.60
2018-02-19T07:08:30.279Z,17.63
2018-02-19T07:10:57.191Z,16.60
2018-02-19T07:13:23.386Z,16.03
2018-02-19T07:15:49.599Z,19.43
2018-02-19T07:18:15.822Z,17.20
2018-02-19T07:20:42.095Z,15.10
2018-02-19T07:23:08.319Z,20.77
2018-02-19T07:25:34.519Z,18.47
2018-02-19T07:28:00.739Z,21.47
2018-02-19T07:30:26.975Z,20.93
2018-02-19T07:32:53.145Z,19.07
2018-02-19T07:35:19.370Z,18.30
2018-02-19T07:37:45.506Z,19.37
2018-02-19T07:40:11.723Z,20.00
2018-02-19T07:42:37.908Z,17.50
2018-02-19T07:45:04.042Z,16.27
2018-02-19T07:47:30.280Z,16.63
2018-02-19T07:49:56.516Z,17.20
2018-02-19T07:52:22.700Z,17.37
2018-02-19T07:54:49.628Z,16.53
2018-02-19T07:57:15.838Z,18.90
2018-02-19T07:59:42.036Z,16.87
2018-02-19T08:02:08.203Z,16.23
2018-02-19T08:04:34.351Z,18.47
2018-02-19T08:07:01.272Z,15.43
2018-02-19T08:09:28.147Z,17.90
2018-02-19T08:11:55.019Z,16.37
2018-02-19T08:14:21.155Z,17.43
2018-02-19T08:16:47.304Z,15.30
2018-02-19T08:19:13.532Z,21.13
2018-02-19T08:21:40.500Z,18.80
2018-02-19T08:24:07.369Z,19.07
2018-02-19T08:26:33.561Z,18.37
2018-02-19T08:29:00.505Z,17.07
2018-02-19T08:31:28.382Z,15.70
2018-02-19T08:33:54.608Z,16.00
2018-02-19T08:36:21.532Z,16.93
2018-02-19T08:38:48.629Z,17.77
2018-02-19T08:41:14.861Z,18.17
2018-02-19T08:43:41.046Z,13.87
2018-02-19T08:46:08.028Z,15.97
2018-02-19T08:48:34.238Z,14.30
2018-02-19T08:51:01.157Z,15.57
2018-02-19T08:53:27.385Z,15.90
2018-02-19T08:55:53.525Z,17.43
2018-02-19T08:58:20.409Z,13.83
2018-02-19T09:00:46.614Z,14.03
2018-02-19T09:03:13.534Z,13.63
2018-02-19T09:05:39.780Z,17.17
2018-02-19T09:08:06.627Z,19.33
2018-02-19T09:10:33.582Z,19.77
2018-02-19T09:12:59.767Z,17.97
2018-02-19T09:15:25.930Z,16.60
2018-02-19T09:17:52.130Z,15.87
2018-02-19T09:20:19.089Z,18.43
2018-02-19T09:22:46.057Z,18.57
2018-02-19T09:25:13.024Z,17.53
2018-02-19T09:27:39.240Z,20.40
2018-02-19T09:30:05.418Z,21.43
2018-02-19T09:32:31.603Z,19.90
2018-02-19T09:34:57.791Z,18.07
2018-02-19T09:37:24.718Z,18.60
2018-02-19T09:39:51.629Z,18.73
2018-02-19T09:42:17.796Z,16.53
2018-02-19T09:44:44.706Z,18.00
2018-02-19T09:47:10.871Z,16.43
2018-02-19T09:49:37.040Z,14.93
2018-02-19T09:52:03.160Z,15.87
2018-02-19T09:54:29.316Z,20.40
2018-02-19T09:56:55.517Z,17.80
2018-02-19T09:59:21.715Z,14.37
2018-02-19T10:01:48.601Z,15.40
2018-02-19T10:04:14.752Z,20.90
2018-02-19T10:06:40.957Z,20.80
2018-02-19T10:09:07.122Z,17.53
2018-02-19T10:11:34.062Z,21.07
2018-02-19T10:14:01.246Z,17.40
2018-02-19T10:16:28.196Z,14.33
2018-02-19T10:18:56.462Z,14.80
2018-02-19T10:21:24.138Z,18.63
2018-02-19T10:23:50.390Z,16.80
2018-02-19T10:26:17.584Z,11.50
2018-02-19T10:28:44.709Z,14.20
2018-02-19T10:31:11.791Z,19.47
2018-02-19T10:33:38.718Z,14.47
2018-02-19T10:36:04.908Z,13.83
2018-02-19T10:38:31.085Z,12.80
2018-02-19T10:40:58.016Z,15.50
2018-02-19T10:43:24.933Z,12.67
2018-02-19T10:45:51.191Z,22.23
2018-02-19T10:48:18.134Z,15.70
2018-02-19T10:50:44.303Z,14.40
2018-02-19T10:53:11.262Z,14.23
2018-02-19T10:55:37.395Z,10.67
2018-02-19T10:58:03.555Z,14.60
2018-02-19T11:00:35.756Z,12.13
2018-02-19T11:03:02.697Z,11.73
2018-02-19T11:05:29.663Z,14.50
2018-02-19T11:07:55.788Z,14.70
2018-02-19T11:10:21.938Z,14.83
2018-02-19T11:12:48.131Z,14.73
2018-02-19T11:15:15.017Z,14.97
2018-02-19T11:17:41.247Z,12.67
2018-02-19T11:20:07.482Z,13.25
2018-02-19T11:22:33.718Z,12.60
2018-02-19T11:24:59.868Z,12.57
2018-02-19T11:27:26.052Z,10.37
2018-02-19T11:29:52.251Z,15.10
2018-02-19T11:32:18.428Z,13.97
2018-02-19T11:34:44.590Z,15.67
2018-02-19T11:37:11.527Z,14.07
2018-02-19T11:39:38.486Z,13.50
2018-02-19T11:42:05.480Z,15.70
2018-02-19T11:44:31.690Z,14.10
2018-02-19T11:46:57.861Z,14.10
2018-02-19T11:49:24.828Z,12.83
2018-02-19T11:51:51.727Z,16.57
2018-02-19T11:54:17.933Z,12.90
2018-02-19T11:56:44.127Z,14.47
2018-02-19T11:59:11.041Z,19.20
2018-02-19T12:01:37.168Z,17.33
2018-02-19T12:04:03.388Z,15.27
2018-02-19T12:06:29.528Z,15.90
2018-02-19T12:08:55.763Z,15.07
2018-02-19T12:11:21.948Z,13.00
2018-02-19T12:13:48.091Z,14.77
2018-02-19T12:16:20.343Z,15.83
2018-02-19T12:18:46.506Z,16.87
2018-02-19T12:21:13.465Z,20.03
2018-02-19T12:23:40.378Z,11.40
2018-02-19T12:26:06.637Z,16.43
2018-02-19T12:28:32.817Z,17.33
2018-02-19T12:30:58.968Z,16.57
2018-02-19T12:33:25.205Z,14.43
2018-02-19T12:35:52.154Z,19.53
2018-02-19T12:38:18.412Z,16.90
2018-02-19T12:40:44.609Z,17.77
2018-02-19T12:43:10.765Z,17.13
2018-02-19T12:45:37.678Z,16.77
2018-02-19T12:48:04.616Z,17.20
2018-02-19T12:50:30.848Z,19.33
2018-02-19T12:52:57.075Z,19.57
2018-02-19T12:55:23.234Z,15.07
2018-02-19T12:57:50.132Z,17.57
2018-02-19T13:00:16.329Z,17.97
2018-02-19T13:02:42.501Z,18.80
2018-02-19T13:05:08.712Z,18.50
2018-02-19T13:07:34.875Z,13.83
2018-02-19T13:10:01.832Z,17.00
2018-02-19T13:12:28.795Z,15.87
2018-02-19T13:14:54.960Z,17.67
2018-02-19T13:17:21.171Z,18.00
2018-02-19T13:19:47.321Z,22.70
2018-02-19T13:22:13.493Z,16.80
2018-02-19T13:24:40.419Z,19.73
2018-02-19T13:27:06.577Z,17.00
2018-02-19T13:29:32.843Z,20.17
2018-02-19T13:31:59.105Z,19.33
2018-02-19T13:34:25.993Z,20.33
2018-02-19T13:36:52.168Z,16.83
2018-02-19T13:39:18.379Z,17.10
2018-02-19T13:41:44.579Z,17.80
2018-02-19T13:44:10.798Z,14.50
2018-02-19T13:46:37.006Z,17.07
2018-02-19T13:49:03.236Z,17.87
2018-02-19T13:51:29.452Z,21.27
2018-02-19T13:53:56.469Z,25.63
2018-02-19T13:56:22.708Z,16.37
2018-02-19T13:58:48.890Z,16.60
2018-02-19T14:01:15.046Z,16.23
2018-02-19T14:03:41.262Z,16.40
2018-02-19T14:06:07.486Z,17.93
2018-02-19T14:08:33.644Z,16.90
2018-02-19T14:11:00.548Z,17.10
2018-02-19T14:13:26.806Z,20.83
2018-02-19T14:15:53.101Z,19.13
2018-02-19T14:18:19.379Z,15.97
2018-02-19T14:20:46.280Z,14.50
2018-02-19T14:23:12.488Z,14.77
2018-02-19T14:25:38.718Z,17.87
2018-02-19T14:28:05.538Z,15.83
2018-02-19T14:30:32.474Z,19.17
2018-02-19T14:32:59.386Z,16.50
2018-02-19T14:35:25.775Z,16.73
2018-02-19T14:37:52.007Z,19.33
2018-02-19T14:40:18.266Z,17.80
2018-02-19T14:42:44.514Z,14.93
2018-02-19T14:45:10.792Z,15.37
2018-02-19T14:47:36.996Z,19.93
2018-02-19T14:50:03.942Z,14.47
2018-02-19T14:52:31.016Z,15.83
2018-02-19T14:54:57.155Z,18.30
2018-02-19T14:57:23.382Z,15.63
2018-02-19T14:59:49.550Z,16.83
2018-02-19T15:02:15.758Z,17.17
2018-02-19T15:04:41.921Z,15.13
2018-02-19T15:07:08.214Z,20.17
2018-02-19T15:09:34.380Z,18.50
2018-02-19T15:12:00.608Z,17.43
2018-02-19T15:14:27.551Z,24.70
2018-02-19T15:16:53.709Z,15.97
2018-02-19T15:19:19.909Z,13.50
2018-02-19T15:21:46.777Z,19.90
2018-02-19T15:24:13.726Z,16.90
2018-02-19T15:26:39.934Z,20.33
2018-02-19T15:29:06.837Z,16.57
2018-02-19T15:31:33.039Z,17.33
2018-02-19T15:33:59.192Z,20.57
2018-02-19T15:36:25.382Z,17.97
2018-02-19T15:38:51.600Z,18.10
2018-02-19T15:41:18.126Z,18.13
2018-02-19T15:43:45.098Z,17.87
2018-02-19T15:46:11.315Z,20.47
2018-02-19T15:48:37.515Z,16.80
2018-02-19T15:51:04.398Z,15.87
2018-02-19T15:53:30.555Z,15.60
2018-02-19T15:55:56.767Z,18.77
2018-02-19T15:58:22.958Z,16.97
2018-02-19T16:00:49.893Z,29.37
2018-02-19T16:03:16.825Z,23.47
2018-02-19T16:05:43.726Z,21.63
2018-02-19T16:08:09.872Z,18.10
2018-02-19T16:10:36.025Z,19.47
2018-02-19T16:13:02.194Z,19.63
2018-02-19T16:15:28.432Z,22.73
2018-02-19T16:17:54.603Z,23.30
2018-02-19T16:20:20.802Z,20.67
2018-02-19T16:22:46.951Z,28.53
2018-02-19T16:25:13.853Z,29.83
2018-02-19T16:27:39.983Z,28.40
2018-02-19T16:30:06.234Z,23.40
2018-02-19T16:32:32.432Z,21.30
2018-02-19T16:34:58.624Z,17.90
2018-02-19T16:37:25.495Z,20.07
2018-02-19T16:39:51.654Z,22.57
2018-02-19T16:42:17.808Z,20.90
2018-02-19T16:44:44.721Z,23.70
2018-02-19T16:47:10.906Z,41.90
2018-02-19T16:49:37.059Z,23.53
2018-02-19T16:52:03.227Z,27.47
2018-02-19T16:54:30.132Z,23.57
2018-02-19T16:56:56.364Z,22.10
2018-02-19T16:59:22.575Z,22.90
2018-02-19T17:01:48.766Z,26.30
2018-02-19T17:04:15.906Z,23.20
2018-02-19T17:06:42.877Z,20.47
2018-02-19T17:09:09.841Z,28.50
2018-02-19T17:11:36.043Z,25.10
2018-02-19T17:14:02.979Z,25.17
2018-02-19T17:16:29.234Z,31.90
2018-02-19T17:18:55.381Z,62.43
2018-02-19T17:21:21.610Z,39.77
2018-02-19T17:23:47.804Z,38.30
2018-02-19T17:26:14.772Z,29.60
2018-02-19T17:28:41.011Z,33.60
2018-02-19T17:31:07.250Z,26.97
2018-02-19T17:33:33.410Z,28.87
2018-02-19T17:36:00.311Z,23.87
2018-02-19T17:38:26.523Z,28.60
2018-02-19T17:40:52.758Z,32.63
2018-02-19T17:43:18.984Z,32.43
2018-02-19T17:45:45.243Z,27.57
2018-02-19T17:48:11.452Z,28.00
2018-02-19T17:50:37.652Z,30.50
2018-02-19T17:53:04.608Z,28.67
2018-02-19T17:55:30.844Z,35.60
2018-02-19T17:57:57.000Z,28.10
2018-02-19T18:00:23.229Z,29.17
2018-02-19T18:02:50.234Z,26.27
2018-02-19T18:05:16.440Z,32.30
2018-02-19T18:07:43.382Z,29.07
2018-02-19T18:10:10.366Z,21.33
2018-02-19T18:12:36.669Z,22.77
2018-02-19T18:15:03.804Z,22.23
2018-02-19T18:17:30.708Z,19.80
2018-02-19T18:19:56.857Z,22.60
2018-02-19T18:22:23.028Z,21.47
2018-02-19T18:24:49.200Z,25.20
2018-02-19T18:27:15.470Z,22.20
2018-02-19T18:29:42.435Z,25.00
2018-02-19T18:32:08.613Z,24.87
2018-02-19T18:34:34.846Z,26.57
2018-02-19T18:37:01.805Z,26.83
2018-02-19T18:39:28.919Z,26.07
2018-02-19T18:41:55.147Z,35.10
2018-02-19T18:44:22.536Z,29.73
2018-02-19T18:46:49.464Z,29.73
2018-02-19T18:49:15.750Z,33.57
2018-02-19T18:51:42.007Z,33.67
2018-02-19T18:54:08.255Z,35.63
2018-02-19T18:56:35.295Z,43.00
2018-02-19T18:59:01.617Z,33.40
2018-02-19T19:01:27.788Z,26.17
2018-02-19T19:03:54.760Z,35.33
2018-02-19T19:06:20.977Z,35.83
2018-02-19T19:09:01.284Z,28.30
2018-02-19T19:11:27.501Z,29.43
2018-02-19T19:13:53.733Z,28.23
2018-02-19T19:16:19.982Z,26.47
2018-02-19T19:18:46.169Z,29.50
2018-02-19T19:21:12.329Z,26.80
2018-02-19T19:23:38.494Z,31.10
2018-02-19T19:26:05.452Z,26.70
2018-02-19T19:28:31.674Z,27.10
2018-02-19T19:30:57.916Z,25.80
2018-02-19T19:33:24.087Z,27.83
2018-02-19T19:35:50.277Z,28.97
2018-02-19T19:38:16.485Z,29.23
2018-02-19T19:40:42.721Z,30.73
2018-02-19T19:43:08.976Z,37.03
2018-02-19T19:45:35.166Z,31.20
2018-02-19T19:48:01.419Z,35.50
2018-02-19T19:50:27.671Z,34.27
2018-02-19T19:52:54.013Z,31.17
2018-02-19T19:55:20.251Z,28.20
2018-02-19T19:57:46.595Z,30.27
2018-02-19T20:00:13.624Z,31.63
2018-02-19T20:02:40.879Z,31.77
2018-02-19T20:05:07.800Z,35.30
2018-02-19T20:07:35.235Z,34.80
2018-02-19T20:10:06.748Z,31.03
2018-02-19T20:12:33.732Z,33.50
2018-02-19T20:15:00.111Z,32.17
2018-02-19T20:17:26.310Z,27.17
2018-02-19T20:19:53.092Z,32.93
2018-02-19T20:22:19.449Z,34.73
2018-02-19T20:24:45.947Z,33.73
2018-02-19T20:27:12.117Z,41.07
2018-02-19T20:29:39.604Z,34.23
2018-02-19T20:32:05.773Z,30.47
2018-02-19T20:34:32.775Z,34.87
2018-02-19T20:36:59.070Z,35.00
2018-02-19T20:39:25.232Z,38.63
2018-02-19T20:41:51.436Z,36.73
2018-02-19T20:44:17.701Z,35.03
2018-02-19T20:46:44.638Z,33.60
2018-02-19T20:49:11.718Z,38.37
2018-02-19T20:51:37.972Z,33.40
2018-02-19T20:54:04.296Z,32.43
2018-02-19T20:56:31.395Z,36.17
2018-02-19T20:58:57.629Z,35.70
2018-02-19T21:01:23.969Z,33.93
2018-02-19T21:03:50.254Z,36.17
2018-02-19T21:06:16.550Z,39.57
2018-02-19T21:08:42.777Z,33.17
2018-02-19T21:11:09.808Z,38.27
2018-02-19T21:13:36.210Z,34.13
2018-02-19T21:16:04.342Z,42.60
2018-02-19T21:18:32.151Z,37.07
2018-02-19T21:20:58.349Z,34.37
2018-02-19T21:23:24.548Z,36.40
2018-02-19T21:25:50.830Z,39.70
2018-02-19T21:28:17.059Z,34.80
2018-02-19T21:30:43.208Z,34.13
2018-02-19T21:33:09.410Z,38.07
2018-02-19T21:35:35.582Z,36.63
2018-02-19T21:38:01.795Z,39.87
2018-02-19T21:40:28.748Z,36.00
2018-02-19T21:42:55.636Z,38.90
2018-02-19T21:45:21.855Z,35.53
2018-02-19T21:47:48.881Z,38.10
2018-02-19T21:50:16.020Z,37.57
2018-02-19T21:52:43.715Z,40.00
2018-02-19T21:55:10.070Z,39.60
2018-02-19T21:57:36.485Z,37.33
2018-02-19T22:00:02.948Z,43.67
2018-02-19T22:02:29.895Z,42.00
2018-02-19T22:04:56.124Z,41.40
2018-02-19T22:07:22.277Z,41.50
2018-02-19T22:09:48.419Z,43.97
2018-02-19T22:12:15.362Z,41.47
2018-02-19T22:14:42.263Z,35.70
2018-02-19T22:17:08.471Z,32.97
2018-02-19T22:19:34.684Z,39.97
2018-02-19T22:22:00.878Z,41.67
2018-02-19T22:24:27.789Z,36.73
2018-02-19T22:26:53.964Z,35.13
2018-02-19T22:29:20.172Z,35.93
2018-02-19T22:31:47.140Z,33.07
2018-02-19T22:34:14.028Z,36.90
2018-02-19T22:36:40.171Z,35.83
2018-02-19T22:39:06.372Z,36.27
2018-02-19T22:41:32.541Z,40.67
2018-02-19T22:43:58.754Z,41.97
2018-02-19T22:46:24.923Z,42.40
2018-02-19T22:48:51.830Z,38.40
2018-02-19T22:51:18.031Z,38.50
2018-02-19T22:53:44.188Z,39.10
2018-02-19T22:56:10.365Z,38.20
2018-02-19T22:58:36.532Z,39.97
2018-02-19T23:01:02.758Z,41.50
2018-02-19T23:03:28.952Z,41.03
2018-02-19T23:05:55.120Z,44.53
2018-02-19T23:08:21.338Z,40.20
2018-02-19T23:10:47.540Z,39.30
2018-02-19T23:13:13.716Z,45.83
2018-02-19T23:15:39.869Z,39.87
2018-02-19T23:18:06.808Z,41.00
2018-02-19T23:20:33.697Z,43.10
2018-02-19T23:22:59.914Z,36.20
2018-02-19T23:25:26.095Z,41.87
2018-02-19T23:27:53.026Z,40.53
2018-02-19T23:30:19.168Z,37.73
2018-02-19T23:32:45.339Z,41.33
2018-02-19T23:35:11.547Z,41.43
2018-02-19T23:37:38.461Z,37.67
2018-02-19T23:40:05.372Z,39.93
2018-02-19T23:42:31.573Z,40.63
2018-02-19T23:44:57.783Z,38.37
2018-02-19T23:47:24.761Z,41.07
2018-02-19T23:49:50.901Z,39.53
2018-02-19T23:52:17.092Z,36.83
2018-02-19T23:54:43.971Z,40.47
2018-02-19T23:57:10.207Z,44.03
2018-02-19T23:59:36.431Z,40.27
